sensor_id;sensor_type;location;lat;lon;timestamp;P1;durP1;ratioP1;P2;durP2;ratioP2
13028;SDS011;6581;42.662;23.402;2022-11-15T00:00:44;178.37;;;114.70;;
13028;SDS011;6581;42.662;23.402;2022-11-15T00:03:30;183.43;;;114.23;;
13028;SDS011;6581;42.662;23.402;2022-11-15T00:09:28;175.03;;;108.17;;
13028;SDS011;6581;42.662;23.402;2022-11-15T00:12:13;172.27;;;109.40;;
13028;SDS011;6581;42.662;23.402;2022-11-15T00:14:59;166.97;;;103.80;;
13028;SDS011;6581;42.662;23.402;2022-11-15T00:17:48;170.03;;;108.23;;
13028;SDS011;6581;42.662;23.402;2022-11-15T00:20:33;165.90;;;106.30;;
13028;SDS011;6581;42.662;23.402;2022-11-15T00:23:19;178.97;;;106.10;;
13028;SDS011;6581;42.662;23.402;2022-11-15T00:26:08;163.70;;;105.00;;
13028;SDS011;6581;42.662;23.402;2022-11-15T00:28:57;160.27;;;104.70;;
13028;SDS011;6581;42.662;23.402;2022-11-15T00:31:43;175.93;;;113.43;;
13028;SDS011;6581;42.662;23.402;2022-11-15T00:34:28;168.40;;;108.90;;
13028;SDS011;6581;42.662;23.402;2022-11-15T00:37:13;169.83;;;106.93;;
13028;SDS011;6581;42.662;23.402;2022-11-15T00:43:12;175.23;;;110.40;;
13028;SDS011;6581;42.662;23.402;2022-11-15T00:45:58;169.43;;;105.73;;
13028;SDS011;6581;42.662;23.402;2022-11-15T00:48:44;159.90;;;99.47;;
13028;SDS011;6581;42.662;23.402;2022-11-15T00:51:29;146.87;;;95.20;;
13028;SDS011;6581;42.662;23.402;2022-11-15T00:54:15;165.20;;;106.23;;
13028;SDS011;6581;42.662;23.402;2022-11-15T00:57:01;193.23;;;122.13;;
13028;SDS011;6581;42.662;23.402;2022-11-15T00:59:48;192.17;;;117.50;;
13028;SDS011;6581;42.662;23.402;2022-11-15T01:05:45;166.97;;;104.10;;
13028;SDS011;6581;42.662;23.402;2022-11-15T01:08:31;167.97;;;101.77;;
13028;SDS011;6581;42.662;23.402;2022-11-15T01:11:17;166.93;;;102.90;;
13028;SDS011;6581;42.662;23.402;2022-11-15T01:14:03;163.47;;;104.43;;
13028;SDS011;6581;42.662;23.402;2022-11-15T01:16:50;166.50;;;103.63;;
13028;SDS011;6581;42.662;23.402;2022-11-15T01:19:35;166.57;;;105.73;;
13028;SDS011;6581;42.662;23.402;2022-11-15T01:22:21;169.00;;;102.17;;
13028;SDS011;6581;42.662;23.402;2022-11-15T01:25:07;162.07;;;100.13;;
13028;SDS011;6581;42.662;23.402;2022-11-15T01:27:53;159.23;;;99.50;;
13028;SDS011;6581;42.662;23.402;2022-11-15T01:30:38;152.77;;;96.53;;
13028;SDS011;6581;42.662;23.402;2022-11-15T01:33:26;161.50;;;100.47;;
13028;SDS011;6581;42.662;23.402;2022-11-15T01:36:13;181.23;;;107.53;;
13028;SDS011;6581;42.662;23.402;2022-11-15T01:39:01;167.90;;;105.40;;
13028;SDS011;6581;42.662;23.402;2022-11-15T01:41:48;165.07;;;102.93;;
13028;SDS011;6581;42.662;23.402;2022-11-15T01:44:43;169.07;;;101.27;;
13028;SDS011;6581;42.662;23.402;2022-11-15T01:47:33;173.00;;;104.10;;
13028;SDS011;6581;42.662;23.402;2022-11-15T01:50:23;161.50;;;98.47;;
13028;SDS011;6581;42.662;23.402;2022-11-15T01:53:12;158.33;;;96.50;;
13028;SDS011;6581;42.662;23.402;2022-11-15T01:55:59;158.13;;;96.73;;
13028;SDS011;6581;42.662;23.402;2022-11-15T01:58:47;158.20;;;98.77;;
13028;SDS011;6581;42.662;23.402;2022-11-15T02:01:35;155.23;;;97.40;;
13028;SDS011;6581;42.662;23.402;2022-11-15T02:04:21;153.57;;;95.60;;
13028;SDS011;6581;42.662;23.402;2022-11-15T02:07:12;158.43;;;98.13;;
13028;SDS011;6581;42.662;23.402;2022-11-15T02:10:02;150.60;;;94.27;;
13028;SDS011;6581;42.662;23.402;2022-11-15T02:12:52;138.50;;;83.10;;
13028;SDS011;6581;42.662;23.402;2022-11-15T02:15:39;127.70;;;72.87;;
13028;SDS011;6581;42.662;23.402;2022-11-15T02:18:31;113.93;;;68.60;;
13028;SDS011;6581;42.662;23.402;2022-11-15T02:21:22;118.70;;;72.53;;
13028;SDS011;6581;42.662;23.402;2022-11-15T02:24:21;115.07;;;70.53;;
13028;SDS011;6581;42.662;23.402;2022-11-15T02:27:30;118.80;;;73.50;;
13028;SDS011;6581;42.662;23.402;2022-11-15T02:30:37;120.33;;;73.37;;
13028;SDS011;6581;42.662;23.402;2022-11-15T02:33:30;134.57;;;78.60;;
13028;SDS011;6581;42.662;23.402;2022-11-15T02:36:29;126.67;;;75.77;;
13028;SDS011;6581;42.662;23.402;2022-11-15T02:39:46;130.77;;;74.00;;
13028;SDS011;6581;42.662;23.402;2022-11-15T02:42:38;124.97;;;73.23;;
13028;SDS011;6581;42.662;23.402;2022-11-15T02:45:50;118.67;;;67.17;;
13028;SDS011;6581;42.662;23.402;2022-11-15T02:48:40;102.97;;;61.17;;
13028;SDS011;6581;42.662;23.402;2022-11-15T02:51:28;96.17;;;57.77;;
13028;SDS011;6581;42.662;23.402;2022-11-15T02:54:15;97.50;;;59.20;;
13028;SDS011;6581;42.662;23.402;2022-11-15T02:57:14;97.17;;;56.63;;
13028;SDS011;6581;42.662;23.402;2022-11-15T03:00:06;111.13;;;57.77;;
13028;SDS011;6581;42.662;23.402;2022-11-15T03:03:03;93.30;;;53.83;;
13028;SDS011;6581;42.662;23.402;2022-11-15T03:06:04;90.33;;;54.20;;
13028;SDS011;6581;42.662;23.402;2022-11-15T03:09:03;84.40;;;53.57;;
13028;SDS011;6581;42.662;23.402;2022-11-15T03:11:54;83.67;;;52.97;;
13028;SDS011;6581;42.662;23.402;2022-11-15T03:14:46;99.67;;;56.00;;
13028;SDS011;6581;42.662;23.402;2022-11-15T03:18:06;87.83;;;54.77;;
13028;SDS011;6581;42.662;23.402;2022-11-15T03:20:57;86.23;;;53.47;;
13028;SDS011;6581;42.662;23.402;2022-11-15T03:23:44;81.37;;;52.97;;
13028;SDS011;6581;42.662;23.402;2022-11-15T03:26:42;82.07;;;52.60;;
13028;SDS011;6581;42.662;23.402;2022-11-15T03:29:39;83.23;;;52.90;;
13028;SDS011;6581;42.662;23.402;2022-11-15T03:32:56;83.37;;;54.17;;
13028;SDS011;6581;42.662;23.402;2022-11-15T03:36:00;82.93;;;52.00;;
13028;SDS011;6581;42.662;23.402;2022-11-15T03:38:46;91.40;;;52.67;;
13028;SDS011;6581;42.662;23.402;2022-11-15T03:41:34;97.40;;;52.20;;
13028;SDS011;6581;42.662;23.402;2022-11-15T03:44:28;93.87;;;52.43;;
13028;SDS011;6581;42.662;23.402;2022-11-15T03:47:23;102.13;;;55.63;;
13028;SDS011;6581;42.662;23.402;2022-11-15T03:50:12;90.63;;;54.00;;
13028;SDS011;6581;42.662;23.402;2022-11-15T03:53:02;120.80;;;56.93;;
13028;SDS011;6581;42.662;23.402;2022-11-15T03:55:49;110.00;;;62.67;;
13028;SDS011;6581;42.662;23.402;2022-11-15T03:58:36;116.93;;;58.73;;
13028;SDS011;6581;42.662;23.402;2022-11-15T04:01:21;122.23;;;56.43;;
13028;SDS011;6581;42.662;23.402;2022-11-15T04:04:07;113.13;;;54.73;;
13028;SDS011;6581;42.662;23.402;2022-11-15T04:06:54;142.97;;;56.90;;
13028;SDS011;6581;42.662;23.402;2022-11-15T04:09:41;128.57;;;55.93;;
13028;SDS011;6581;42.662;23.402;2022-11-15T04:12:42;90.37;;;48.03;;
13028;SDS011;6581;42.662;23.402;2022-11-15T04:15:31;87.37;;;52.83;;
13028;SDS011;6581;42.662;23.402;2022-11-15T04:18:16;82.77;;;46.60;;
13028;SDS011;6581;42.662;23.402;2022-11-15T04:21:09;84.37;;;47.37;;
13028;SDS011;6581;42.662;23.402;2022-11-15T04:24:13;88.77;;;46.93;;
13028;SDS011;6581;42.662;23.402;2022-11-15T04:27:01;79.37;;;44.50;;
13028;SDS011;6581;42.662;23.402;2022-11-15T04:29:47;74.53;;;45.70;;
13028;SDS011;6581;42.662;23.402;2022-11-15T04:32:32;90.07;;;46.10;;
13028;SDS011;6581;42.662;23.402;2022-11-15T04:35:18;93.37;;;48.20;;
13028;SDS011;6581;42.662;23.402;2022-11-15T04:38:05;83.33;;;44.20;;
13028;SDS011;6581;42.662;23.402;2022-11-15T04:40:52;86.83;;;48.37;;
13028;SDS011;6581;42.662;23.402;2022-11-15T04:43:39;86.87;;;48.07;;
13028;SDS011;6581;42.662;23.402;2022-11-15T04:46:25;78.73;;;47.37;;
13028;SDS011;6581;42.662;23.402;2022-11-15T04:49:11;78.40;;;46.03;;
13028;SDS011;6581;42.662;23.402;2022-11-15T04:51:57;77.40;;;47.53;;
13028;SDS011;6581;42.662;23.402;2022-11-15T04:54:42;75.33;;;45.77;;
13028;SDS011;6581;42.662;23.402;2022-11-15T04:57:28;77.23;;;45.57;;
13028;SDS011;6581;42.662;23.402;2022-11-15T05:00:16;83.10;;;45.07;;
13028;SDS011;6581;42.662;23.402;2022-11-15T05:03:02;121.97;;;44.77;;
13028;SDS011;6581;42.662;23.402;2022-11-15T05:06:05;125.60;;;39.50;;
13028;SDS011;6581;42.662;23.402;2022-11-15T05:08:53;104.47;;;42.80;;
13028;SDS011;6581;42.662;23.402;2022-11-15T05:11:38;94.93;;;45.73;;
13028;SDS011;6581;42.662;23.402;2022-11-15T05:14:24;101.10;;;44.23;;
13028;SDS011;6581;42.662;23.402;2022-11-15T05:17:10;79.63;;;44.27;;
13028;SDS011;6581;42.662;23.402;2022-11-15T05:19:56;88.20;;;44.20;;
13028;SDS011;6581;42.662;23.402;2022-11-15T05:22:41;87.50;;;43.37;;
13028;SDS011;6581;42.662;23.402;2022-11-15T05:25:27;108.87;;;43.43;;
13028;SDS011;6581;42.662;23.402;2022-11-15T05:28:13;140.57;;;42.30;;
13028;SDS011;6581;42.662;23.402;2022-11-15T05:31:00;117.63;;;41.80;;
13028;SDS011;6581;42.662;23.402;2022-11-15T05:33:48;134.50;;;36.13;;
13028;SDS011;6581;42.662;23.402;2022-11-15T05:36:34;95.37;;;38.07;;
13028;SDS011;6581;42.662;23.402;2022-11-15T05:39:22;102.50;;;34.90;;
13028;SDS011;6581;42.662;23.402;2022-11-15T05:42:10;98.00;;;34.33;;
13028;SDS011;6581;42.662;23.402;2022-11-15T05:44:58;119.83;;;35.80;;
13028;SDS011;6581;42.662;23.402;2022-11-15T05:47:46;85.23;;;34.47;;
13028;SDS011;6581;42.662;23.402;2022-11-15T05:50:34;88.67;;;34.20;;
13028;SDS011;6581;42.662;23.402;2022-11-15T05:53:23;92.50;;;36.43;;
13028;SDS011;6581;42.662;23.402;2022-11-15T05:56:11;94.37;;;35.00;;
13028;SDS011;6581;42.662;23.402;2022-11-15T05:58:57;186.50;;;36.53;;
13028;SDS011;6581;42.662;23.402;2022-11-15T06:01:43;76.13;;;31.73;;
13028;SDS011;6581;42.662;23.402;2022-11-15T06:04:29;106.77;;;33.80;;
13028;SDS011;6581;42.662;23.402;2022-11-15T06:07:17;82.07;;;33.47;;
13028;SDS011;6581;42.662;23.402;2022-11-15T06:10:03;76.40;;;33.67;;
13028;SDS011;6581;42.662;23.402;2022-11-15T06:12:55;143.23;;;34.40;;
13028;SDS011;6581;42.662;23.402;2022-11-15T06:15:42;69.00;;;30.63;;
13028;SDS011;6581;42.662;23.402;2022-11-15T06:18:28;117.37;;;41.27;;
13028;SDS011;6581;42.662;23.402;2022-11-15T06:21:13;189.30;;;49.53;;
13028;SDS011;6581;42.662;23.402;2022-11-15T06:24:00;126.07;;;39.90;;
13028;SDS011;6581;42.662;23.402;2022-11-15T06:26:46;94.37;;;40.10;;
13028;SDS011;6581;42.662;23.402;2022-11-15T06:29:32;90.53;;;34.67;;
13028;SDS011;6581;42.662;23.402;2022-11-15T06:32:17;84.67;;;34.60;;
13028;SDS011;6581;42.662;23.402;2022-11-15T06:35:04;35.37;;;19.87;;
13028;SDS011;6581;42.662;23.402;2022-11-15T06:38:16;34.10;;;20.60;;
13028;SDS011;6581;42.662;23.402;2022-11-15T06:41:03;35.80;;;21.37;;
13028;SDS011;6581;42.662;23.402;2022-11-15T06:43:50;34.17;;;19.50;;
13028;SDS011;6581;42.662;23.402;2022-11-15T06:46:36;31.77;;;19.37;;
13028;SDS011;6581;42.662;23.402;2022-11-15T06:49:22;31.10;;;18.27;;
13028;SDS011;6581;42.662;23.402;2022-11-15T06:52:07;30.90;;;19.70;;
13028;SDS011;6581;42.662;23.402;2022-11-15T06:54:53;29.50;;;18.93;;
13028;SDS011;6581;42.662;23.402;2022-11-15T06:57:47;33.83;;;21.27;;
13028;SDS011;6581;42.662;23.402;2022-11-15T07:00:33;31.77;;;19.53;;
13028;SDS011;6581;42.662;23.402;2022-11-15T07:03:19;33.40;;;20.27;;
13028;SDS011;6581;42.662;23.402;2022-11-15T07:06:05;28.33;;;18.50;;
13028;SDS011;6581;42.662;23.402;2022-11-15T07:08:51;36.40;;;22.37;;
13028;SDS011;6581;42.662;23.402;2022-11-15T07:11:37;36.33;;;23.30;;
13028;SDS011;6581;42.662;23.402;2022-11-15T07:14:24;30.57;;;20.73;;
13028;SDS011;6581;42.662;23.402;2022-11-15T07:17:35;35.10;;;20.87;;
13028;SDS011;6581;42.662;23.402;2022-11-15T07:20:20;32.23;;;21.30;;
13028;SDS011;6581;42.662;23.402;2022-11-15T07:23:06;30.93;;;20.43;;
13028;SDS011;6581;42.662;23.402;2022-11-15T07:25:52;30.17;;;20.03;;
13028;SDS011;6581;42.662;23.402;2022-11-15T07:28:37;32.70;;;21.37;;
13028;SDS011;6581;42.662;23.402;2022-11-15T07:31:24;31.10;;;21.60;;
13028;SDS011;6581;42.662;23.402;2022-11-15T07:34:10;31.73;;;21.30;;
13028;SDS011;6581;42.662;23.402;2022-11-15T07:36:55;31.50;;;20.77;;
13028;SDS011;6581;42.662;23.402;2022-11-15T07:39:41;29.00;;;20.93;;
13028;SDS011;6581;42.662;23.402;2022-11-15T07:42:27;33.50;;;21.90;;
13028;SDS011;6581;42.662;23.402;2022-11-15T07:45:30;32.23;;;22.50;;
13028;SDS011;6581;42.662;23.402;2022-11-15T07:48:21;36.10;;;21.00;;
13028;SDS011;6581;42.662;23.402;2022-11-15T07:51:06;33.53;;;20.70;;
13028;SDS011;6581;42.662;23.402;2022-11-15T07:53:54;36.60;;;21.07;;
13028;SDS011;6581;42.662;23.402;2022-11-15T07:56:40;35.73;;;21.83;;
13028;SDS011;6581;42.662;23.402;2022-11-15T07:59:26;36.30;;;21.03;;
13028;SDS011;6581;42.662;23.402;2022-11-15T08:02:12;38.27;;;22.27;;
13028;SDS011;6581;42.662;23.402;2022-11-15T08:04:59;40.90;;;23.23;;
13028;SDS011;6581;42.662;23.402;2022-11-15T08:07:45;42.07;;;24.23;;
13028;SDS011;6581;42.662;23.402;2022-11-15T08:10:30;39.87;;;24.90;;
13028;SDS011;6581;42.662;23.402;2022-11-15T08:13:16;45.07;;;26.40;;
13028;SDS011;6581;42.662;23.402;2022-11-15T08:16:02;44.83;;;27.53;;
13028;SDS011;6581;42.662;23.402;2022-11-15T08:18:49;43.77;;;27.00;;
13028;SDS011;6581;42.662;23.402;2022-11-15T08:21:36;44.27;;;27.20;;
13028;SDS011;6581;42.662;23.402;2022-11-15T08:24:22;41.40;;;26.80;;
13028;SDS011;6581;42.662;23.402;2022-11-15T08:27:08;45.27;;;29.07;;
13028;SDS011;6581;42.662;23.402;2022-11-15T08:29:58;43.83;;;28.23;;
13028;SDS011;6581;42.662;23.402;2022-11-15T08:32:44;45.30;;;28.03;;
13028;SDS011;6581;42.662;23.402;2022-11-15T08:35:29;49.77;;;30.57;;
13028;SDS011;6581;42.662;23.402;2022-11-15T08:38:20;47.60;;;29.63;;
13028;SDS011;6581;42.662;23.402;2022-11-15T08:41:06;46.30;;;29.23;;
13028;SDS011;6581;42.662;23.402;2022-11-15T08:43:52;50.50;;;31.40;;
13028;SDS011;6581;42.662;23.402;2022-11-15T08:47:02;51.07;;;31.00;;
13028;SDS011;6581;42.662;23.402;2022-11-15T08:49:48;50.87;;;32.83;;
13028;SDS011;6581;42.662;23.402;2022-11-15T08:52:40;50.10;;;31.93;;
13028;SDS011;6581;42.662;23.402;2022-11-15T08:55:28;48.90;;;31.33;;
13028;SDS011;6581;42.662;23.402;2022-11-15T08:58:14;47.33;;;32.17;;
13028;SDS011;6581;42.662;23.402;2022-11-15T09:00:59;55.10;;;34.23;;
13028;SDS011;6581;42.662;23.402;2022-11-15T09:03:45;56.23;;;33.83;;
13028;SDS011;6581;42.662;23.402;2022-11-15T09:06:34;55.83;;;35.07;;
13028;SDS011;6581;42.662;23.402;2022-11-15T09:09:20;57.47;;;35.03;;
13028;SDS011;6581;42.662;23.402;2022-11-15T09:12:07;56.03;;;36.10;;
13028;SDS011;6581;42.662;23.402;2022-11-15T09:14:53;57.03;;;37.50;;
13028;SDS011;6581;42.662;23.402;2022-11-15T09:17:39;64.70;;;37.00;;
13028;SDS011;6581;42.662;23.402;2022-11-15T09:20:25;65.13;;;37.57;;
13028;SDS011;6581;42.662;23.402;2022-11-15T09:23:11;61.80;;;37.03;;
13028;SDS011;6581;42.662;23.402;2022-11-15T09:26:00;61.73;;;37.00;;
13028;SDS011;6581;42.662;23.402;2022-11-15T09:28:47;61.03;;;37.77;;
13028;SDS011;6581;42.662;23.402;2022-11-15T09:31:33;60.43;;;36.73;;
13028;SDS011;6581;42.662;23.402;2022-11-15T09:34:18;64.07;;;39.70;;
13028;SDS011;6581;42.662;23.402;2022-11-15T09:37:05;63.17;;;37.90;;
13028;SDS011;6581;42.662;23.402;2022-11-15T09:39:50;68.80;;;42.10;;
13028;SDS011;6581;42.662;23.402;2022-11-15T09:42:41;63.20;;;40.17;;
13028;SDS011;6581;42.662;23.402;2022-11-15T09:45:40;72.17;;;42.30;;
13028;SDS011;6581;42.662;23.402;2022-11-15T09:48:50;68.47;;;40.73;;
13028;SDS011;6581;42.662;23.402;2022-11-15T09:51:40;71.53;;;42.20;;
13028;SDS011;6581;42.662;23.402;2022-11-15T09:57:10;71.67;;;44.60;;
13028;SDS011;6581;42.662;23.402;2022-11-15T09:59:43;75.70;;;42.43;;
13028;SDS011;6581;42.662;23.402;2022-11-15T10:02:33;68.50;;;42.73;;
13028;SDS011;6581;42.662;23.402;2022-11-15T10:05:13;81.87;;;48.47;;
13028;SDS011;6581;42.662;23.402;2022-11-15T10:07:45;81.50;;;47.33;;
13028;SDS011;6581;42.662;23.402;2022-11-15T10:10:43;87.70;;;46.37;;
13028;SDS011;6581;42.662;23.402;2022-11-15T10:13:13;87.50;;;49.23;;
13028;SDS011;6581;42.662;23.402;2022-11-15T10:15:43;89.40;;;48.07;;
13028;SDS011;6581;42.662;23.402;2022-11-15T10:18:17;84.07;;;46.20;;
13028;SDS011;6581;42.662;23.402;2022-11-15T10:20:51;90.40;;;47.37;;
13028;SDS011;6581;42.662;23.402;2022-11-15T10:23:22;91.57;;;48.63;;
13028;SDS011;6581;42.662;23.402;2022-11-15T10:25:50;87.03;;;46.43;;
13028;SDS011;6581;42.662;23.402;2022-11-15T10:28:21;89.43;;;48.07;;
13028;SDS011;6581;42.662;23.402;2022-11-15T10:30:50;87.30;;;47.77;;
13028;SDS011;6581;42.662;23.402;2022-11-15T10:33:32;97.73;;;52.70;;
13028;SDS011;6581;42.662;23.402;2022-11-15T10:36:15;90.07;;;53.90;;
13028;SDS011;6581;42.662;23.402;2022-11-15T10:38:51;86.70;;;48.73;;
13028;SDS011;6581;42.662;23.402;2022-11-15T10:41:45;100.83;;;52.90;;
13028;SDS011;6581;42.662;23.402;2022-11-15T10:44:20;85.20;;;48.47;;
13028;SDS011;6581;42.662;23.402;2022-11-15T10:50:05;89.83;;;50.93;;
13028;SDS011;6581;42.662;23.402;2022-11-15T10:52:34;94.60;;;50.13;;
13028;SDS011;6581;42.662;23.402;2022-11-15T10:55:05;86.13;;;47.73;;
13028;SDS011;6581;42.662;23.402;2022-11-15T10:57:48;85.63;;;47.73;;
13028;SDS011;6581;42.662;23.402;2022-11-15T11:00:29;87.67;;;47.93;;
13028;SDS011;6581;42.662;23.402;2022-11-15T11:03:01;85.47;;;45.77;;
13028;SDS011;6581;42.662;23.402;2022-11-15T11:05:33;85.10;;;46.83;;
13028;SDS011;6581;42.662;23.402;2022-11-15T11:08:03;79.53;;;43.47;;
13028;SDS011;6581;42.662;23.402;2022-11-15T11:10:31;75.83;;;44.03;;
13028;SDS011;6581;42.662;23.402;2022-11-15T11:13:12;82.17;;;45.37;;
13028;SDS011;6581;42.662;23.402;2022-11-15T11:15:40;79.43;;;45.47;;
13028;SDS011;6581;42.662;23.402;2022-11-15T11:18:14;80.43;;;44.93;;
13028;SDS011;6581;42.662;23.402;2022-11-15T11:20:49;76.40;;;44.20;;
13028;SDS011;6581;42.662;23.402;2022-11-15T11:23:24;76.33;;;43.93;;
13028;SDS011;6581;42.662;23.402;2022-11-15T11:26:08;78.40;;;44.73;;
13028;SDS011;6581;42.662;23.402;2022-11-15T11:28:46;74.87;;;42.97;;
13028;SDS011;6581;42.662;23.402;2022-11-15T11:31:21;73.60;;;43.23;;
13028;SDS011;6581;42.662;23.402;2022-11-15T11:33:58;75.73;;;45.23;;
13028;SDS011;6581;42.662;23.402;2022-11-15T11:36:38;75.43;;;43.67;;
13028;SDS011;6581;42.662;23.402;2022-11-15T11:39:17;71.73;;;43.43;;
13028;SDS011;6581;42.662;23.402;2022-11-15T11:41:59;73.77;;;44.80;;
13028;SDS011;6581;42.662;23.402;2022-11-15T11:44:33;73.63;;;44.77;;
13028;SDS011;6581;42.662;23.402;2022-11-15T11:47:06;74.07;;;44.47;;
13028;SDS011;6581;42.662;23.402;2022-11-15T11:49:38;75.77;;;44.83;;
13028;SDS011;6581;42.662;23.402;2022-11-15T11:52:15;70.60;;;43.57;;
13028;SDS011;6581;42.662;23.402;2022-11-15T11:54:50;71.93;;;42.77;;
13028;SDS011;6581;42.662;23.402;2022-11-15T11:57:27;67.47;;;41.13;;
13028;SDS011;6581;42.662;23.402;2022-11-15T12:00:02;68.97;;;42.20;;
13028;SDS011;6581;42.662;23.402;2022-11-15T12:02:40;63.83;;;40.73;;
13028;SDS011;6581;42.662;23.402;2022-11-15T12:05:10;63.37;;;41.00;;
13028;SDS011;6581;42.662;23.402;2022-11-15T12:07:44;58.63;;;38.47;;
13028;SDS011;6581;42.662;23.402;2022-11-15T12:10:17;59.33;;;38.10;;
13028;SDS011;6581;42.662;23.402;2022-11-15T12:12:51;60.60;;;39.33;;
13028;SDS011;6581;42.662;23.402;2022-11-15T12:15:26;65.50;;;40.90;;
13028;SDS011;6581;42.662;23.402;2022-11-15T12:17:56;62.50;;;39.53;;
13028;SDS011;6581;42.662;23.402;2022-11-15T12:20:27;62.07;;;39.17;;
13028;SDS011;6581;42.662;23.402;2022-11-15T12:22:58;70.00;;;40.17;;
13028;SDS011;6581;42.662;23.402;2022-11-15T12:25:31;61.70;;;39.20;;
13028;SDS011;6581;42.662;23.402;2022-11-15T12:28:07;60.63;;;39.50;;
13028;SDS011;6581;42.662;23.402;2022-11-15T12:30:43;65.97;;;41.27;;
13028;SDS011;6581;42.662;23.402;2022-11-15T12:36:05;62.60;;;39.70;;
13028;SDS011;6581;42.662;23.402;2022-11-15T12:38:56;64.57;;;41.60;;
13028;SDS011;6581;42.662;23.402;2022-11-15T12:41:25;63.73;;;39.57;;
13028;SDS011;6581;42.662;23.402;2022-11-15T12:43:54;67.80;;;41.00;;
13028;SDS011;6581;42.662;23.402;2022-11-15T12:46:23;64.07;;;40.43;;
13028;SDS011;6581;42.662;23.402;2022-11-15T12:49:41;69.27;;;41.73;;
13028;SDS011;6581;42.662;23.402;2022-11-15T12:52:10;64.03;;;40.20;;
13028;SDS011;6581;42.662;23.402;2022-11-15T12:57:33;59.93;;;38.73;;
13028;SDS011;6581;42.662;23.402;2022-11-15T13:03:16;60.63;;;39.40;;
13028;SDS011;6581;42.662;23.402;2022-11-15T13:05:56;59.03;;;38.08;;
13028;SDS011;6581;42.662;23.402;2022-11-15T13:08:37;63.97;;;40.47;;
13028;SDS011;6581;42.662;23.402;2022-11-15T13:17:25;62.13;;;39.67;;
13028;SDS011;6581;42.662;23.402;2022-11-15T13:20:00;61.63;;;40.10;;
13028;SDS011;6581;42.662;23.402;2022-11-15T13:22:40;62.13;;;40.50;;
13028;SDS011;6581;42.662;23.402;2022-11-15T13:28:36;66.85;;;42.25;;
13028;SDS011;6581;42.662;23.402;2022-11-15T13:31:16;61.30;;;42.30;;
13028;SDS011;6581;42.662;23.402;2022-11-15T13:33:50;62.10;;;40.03;;
13028;SDS011;6581;42.662;23.402;2022-11-15T13:36:20;64.82;;;41.53;;
13028;SDS011;6581;42.662;23.402;2022-11-15T13:38:57;64.30;;;41.17;;
13028;SDS011;6581;42.662;23.402;2022-11-15T13:41:26;62.88;;;41.03;;
13028;SDS011;6581;42.662;23.402;2022-11-15T13:43:56;62.60;;;40.40;;
13028;SDS011;6581;42.662;23.402;2022-11-15T13:46:25;59.17;;;39.22;;
13028;SDS011;6581;42.662;23.402;2022-11-15T13:48:54;60.97;;;40.17;;
13028;SDS011;6581;42.662;23.402;2022-11-15T13:51:25;61.95;;;39.72;;
13028;SDS011;6581;42.662;23.402;2022-11-15T13:54:01;58.47;;;39.97;;
13028;SDS011;6581;42.662;23.402;2022-11-15T13:56:33;62.40;;;41.15;;
13028;SDS011;6581;42.662;23.402;2022-11-15T13:59:09;60.72;;;39.00;;
13028;SDS011;6581;42.662;23.402;2022-11-15T14:01:36;56.30;;;38.13;;
13028;SDS011;6581;42.662;23.402;2022-11-15T14:04:09;60.13;;;38.35;;
13028;SDS011;6581;42.662;23.402;2022-11-15T14:06:44;56.90;;;37.28;;
13028;SDS011;6581;42.662;23.402;2022-11-15T14:09:23;58.50;;;39.00;;
13028;SDS011;6581;42.662;23.402;2022-11-15T14:11:57;57.00;;;37.67;;
13028;SDS011;6581;42.662;23.402;2022-11-15T14:14:26;63.63;;;41.83;;
13028;SDS011;6581;42.662;23.402;2022-11-15T14:16:54;58.17;;;39.25;;
13028;SDS011;6581;42.662;23.402;2022-11-15T14:19:38;58.65;;;38.33;;
13028;SDS011;6581;42.662;23.402;2022-11-15T14:25:13;58.33;;;37.40;;
13028;SDS011;6581;42.662;23.402;2022-11-15T14:27:42;57.53;;;36.80;;
13028;SDS011;6581;42.662;23.402;2022-11-15T14:30:14;61.67;;;38.23;;
13028;SDS011;6581;42.662;23.402;2022-11-15T14:32:46;60.43;;;36.97;;
13028;SDS011;6581;42.662;23.402;2022-11-15T14:35:16;60.80;;;38.63;;
13028;SDS011;6581;42.662;23.402;2022-11-15T14:37:44;61.87;;;40.63;;
13028;SDS011;6581;42.662;23.402;2022-11-15T14:40:12;60.20;;;39.77;;
13028;SDS011;6581;42.662;23.402;2022-11-15T14:42:41;63.93;;;41.43;;
13028;SDS011;6581;42.662;23.402;2022-11-15T14:45:10;76.23;;;53.43;;
13028;SDS011;6581;42.662;23.402;2022-11-15T14:47:41;85.27;;;55.27;;
13028;SDS011;6581;42.662;23.402;2022-11-15T14:50:11;83.90;;;52.53;;
13028;SDS011;6581;42.662;23.402;2022-11-15T14:52:38;88.40;;;52.83;;
13028;SDS011;6581;42.662;23.402;2022-11-15T14:55:11;83.10;;;53.37;;
13028;SDS011;6581;42.662;23.402;2022-11-15T14:57:44;73.63;;;48.80;;
13028;SDS011;6581;42.662;23.402;2022-11-15T15:00:11;85.60;;;58.20;;
13028;SDS011;6581;42.662;23.402;2022-11-15T15:02:41;86.50;;;54.83;;
13028;SDS011;6581;42.662;23.402;2022-11-15T15:05:13;85.23;;;55.97;;
13028;SDS011;6581;42.662;23.402;2022-11-15T15:07:42;88.50;;;56.67;;
13028;SDS011;6581;42.662;23.402;2022-11-15T15:10:09;84.63;;;55.67;;
13028;SDS011;6581;42.662;23.402;2022-11-15T15:12:37;94.87;;;60.93;;
13028;SDS011;6581;42.662;23.402;2022-11-15T15:15:04;96.83;;;61.53;;
13028;SDS011;6581;42.662;23.402;2022-11-15T15:17:33;104.33;;;66.60;;
13028;SDS011;6581;42.662;23.402;2022-11-15T15:20:01;98.43;;;66.30;;
13028;SDS011;6581;42.662;23.402;2022-11-15T15:22:29;102.83;;;67.80;;
13028;SDS011;6581;42.662;23.402;2022-11-15T15:24:57;104.07;;;65.53;;
13028;SDS011;6581;42.662;23.402;2022-11-15T15:27:49;102.60;;;63.20;;
13028;SDS011;6581;42.662;23.402;2022-11-15T15:30:17;99.80;;;64.53;;
13028;SDS011;6581;42.662;23.402;2022-11-15T15:32:44;92.83;;;57.97;;
13028;SDS011;6581;42.662;23.402;2022-11-15T15:35:38;94.33;;;56.00;;
13028;SDS011;6581;42.662;23.402;2022-11-15T15:38:05;106.03;;;63.87;;
13028;SDS011;6581;42.662;23.402;2022-11-15T15:40:32;123.43;;;76.93;;
13028;SDS011;6581;42.662;23.402;2022-11-15T15:43:00;107.40;;;63.90;;
13028;SDS011;6581;42.662;23.402;2022-11-15T15:45:27;96.93;;;60.67;;
13028;SDS011;6581;42.662;23.402;2022-11-15T15:47:55;89.77;;;56.43;;
13028;SDS011;6581;42.662;23.402;2022-11-15T15:50:23;87.97;;;54.20;;
13028;SDS011;6581;42.662;23.402;2022-11-15T15:52:54;88.53;;;55.60;;
13028;SDS011;6581;42.662;23.402;2022-11-15T15:55:22;86.37;;;54.13;;
13028;SDS011;6581;42.662;23.402;2022-11-15T15:57:50;82.17;;;52.17;;
13028;SDS011;6581;42.662;23.402;2022-11-15T16:00:17;83.37;;;48.10;;
13028;SDS011;6581;42.662;23.402;2022-11-15T16:02:46;82.60;;;48.50;;
13028;SDS011;6581;42.662;23.402;2022-11-15T16:05:13;73.47;;;47.97;;
13028;SDS011;6581;42.662;23.402;2022-11-15T16:07:40;85.10;;;49.73;;
13028;SDS011;6581;42.662;23.402;2022-11-15T16:10:15;79.87;;;48.40;;
13028;SDS011;6581;42.662;23.402;2022-11-15T16:12:45;86.57;;;50.37;;
13028;SDS011;6581;42.662;23.402;2022-11-15T16:15:12;88.83;;;50.27;;
13028;SDS011;6581;42.662;23.402;2022-11-15T16:17:40;81.37;;;49.27;;
13028;SDS011;6581;42.662;23.402;2022-11-15T16:20:15;82.90;;;48.67;;
13028;SDS011;6581;42.662;23.402;2022-11-15T16:22:56;82.37;;;51.87;;